sensor_id;sensor_type;location;lat;lon;timestamp;P1;durP1;ratioP1;P2;durP2;ratioP2
41043;SDS011;51680;49.806;18.774;2022-10-18T00:02:17;5.30;;;2.92;;
41043;SDS011;51680;49.806;18.774;2022-10-18T00:05:20;5.32;;;2.72;;
41043;SDS011;51680;49.806;18.774;2022-10-18T00:08:23;8.02;;;2.28;;
41043;SDS011;51680;49.806;18.774;2022-10-18T00:11:25;7.40;;;2.20;;
41043;SDS011;51680;49.806;18.774;2022-10-18T00:14:27;5.95;;;2.50;;
41043;SDS011;51680;49.806;18.774;2022-10-18T00:17:29;6.30;;;2.33;;
41043;SDS011;51680;49.806;18.774;2022-10-18T00:20:30;3.90;;;2.67;;
41043;SDS011;51680;49.806;18.774;2022-10-18T00:23:34;4.20;;;2.50;;
41043;SDS011;51680;49.806;18.774;2022-10-18T00:26:36;8.20;;;2.60;;
41043;SDS011;51680;49.806;18.774;2022-10-18T00:29:38;6.28;;;2.75;;
41043;SDS011;51680;49.806;18.774;2022-10-18T00:32:40;4.57;;;2.88;;
41043;SDS011;51680;49.806;18.774;2022-10-18T00:35:42;7.22;;;3.10;;
41043;SDS011;51680;49.806;18.774;2022-10-18T00:38:45;6.45;;;2.50;;
41043;SDS011;51680;49.806;18.774;2022-10-18T00:45:01;5.32;;;2.67;;
41043;SDS011;51680;49.806;18.774;2022-10-18T00:48:21;7.07;;;3.05;;
41043;SDS011;51680;49.806;18.774;2022-10-18T00:51:24;6.28;;;2.33;;
41043;SDS011;51680;49.806;18.774;2022-10-18T00:54:31;6.60;;;2.72;;
41043;SDS011;51680;49.806;18.774;2022-10-18T00:57:35;8.75;;;2.97;;
41043;SDS011;51680;49.806;18.774;2022-10-18T01:00:38;5.30;;;3.08;;
41043;SDS011;51680;49.806;18.774;2022-10-18T01:03:40;4.50;;;2.70;;
41043;SDS011;51680;49.806;18.774;2022-10-18T01:06:44;5.03;;;2.85;;
41043;SDS011;51680;49.806;18.774;2022-10-18T01:09:56;4.72;;;2.63;;
41043;SDS011;51680;49.806;18.774;2022-10-18T01:13:06;6.40;;;3.30;;
41043;SDS011;51680;49.806;18.774;2022-10-18T01:16:17;4.40;;;2.50;;
41043;SDS011;51680;49.806;18.774;2022-10-18T01:19:38;5.35;;;2.90;;
41043;SDS011;51680;49.806;18.774;2022-10-18T01:22:59;5.72;;;2.58;;
41043;SDS011;51680;49.806;18.774;2022-10-18T01:26:11;6.35;;;3.25;;
41043;SDS011;51680;49.806;18.774;2022-10-18T01:29:23;6.97;;;3.03;;
41043;SDS011;51680;49.806;18.774;2022-10-18T01:32:35;5.20;;;2.80;;
41043;SDS011;51680;49.806;18.774;2022-10-18T01:35:42;6.47;;;2.38;;
41043;SDS011;51680;49.806;18.774;2022-10-18T01:38:48;4.38;;;2.60;;
41043;SDS011;51680;49.806;18.774;2022-10-18T01:41:54;4.47;;;2.80;;
41043;SDS011;51680;49.806;18.774;2022-10-18T01:45:00;6.57;;;3.30;;
41043;SDS011;51680;49.806;18.774;2022-10-18T01:51:07;3.83;;;2.40;;
41043;SDS011;51680;49.806;18.774;2022-10-18T01:54:09;5.18;;;2.92;;
41043;SDS011;51680;49.806;18.774;2022-10-18T01:57:18;7.65;;;2.70;;
41043;SDS011;51680;49.806;18.774;2022-10-18T02:00:25;7.75;;;2.88;;
41043;SDS011;51680;49.806;18.774;2022-10-18T02:03:38;6.45;;;2.75;;
41043;SDS011;51680;49.806;18.774;2022-10-18T02:06:47;10.05;;;3.10;;
41043;SDS011;51680;49.806;18.774;2022-10-18T02:09:56;4.53;;;2.83;;
41043;SDS011;51680;49.806;18.774;2022-10-18T02:16:12;4.82;;;2.50;;
41043;SDS011;51680;49.806;18.774;2022-10-18T02:19:19;5.55;;;2.85;;
41043;SDS011;51680;49.806;18.774;2022-10-18T02:22:26;4.38;;;2.95;;
41043;SDS011;51680;49.806;18.774;2022-10-18T02:25:32;5.13;;;2.75;;
41043;SDS011;51680;49.806;18.774;2022-10-18T02:28:35;6.70;;;2.80;;
41043;SDS011;51680;49.806;18.774;2022-10-18T02:31:38;5.10;;;2.60;;
41043;SDS011;51680;49.806;18.774;2022-10-18T02:34:45;4.65;;;2.70;;
41043;SDS011;51680;49.806;18.774;2022-10-18T02:37:53;7.30;;;3.15;;
41043;SDS011;51680;49.806;18.774;2022-10-18T02:43:58;8.20;;;2.58;;
41043;SDS011;51680;49.806;18.774;2022-10-18T02:47:00;6.43;;;3.15;;
41043;SDS011;51680;49.806;18.774;2022-10-18T02:50:06;6.45;;;3.22;;
41043;SDS011;51680;49.806;18.774;2022-10-18T02:53:08;4.57;;;2.88;;
41043;SDS011;51680;49.806;18.774;2022-10-18T02:56:10;5.88;;;2.67;;
41043;SDS011;51680;49.806;18.774;2022-10-18T02:59:12;6.80;;;3.15;;
41043;SDS011;51680;49.806;18.774;2022-10-18T03:02:14;7.85;;;3.15;;
41043;SDS011;51680;49.806;18.774;2022-10-18T03:05:17;5.43;;;2.80;;
41043;SDS011;51680;49.806;18.774;2022-10-18T03:08:19;8.27;;;3.40;;
41043;SDS011;51680;49.806;18.774;2022-10-18T03:11:22;5.75;;;2.80;;
41043;SDS011;51680;49.806;18.774;2022-10-18T03:14:24;5.45;;;2.90;;
41043;SDS011;51680;49.806;18.774;2022-10-18T03:17:26;6.72;;;3.13;;
41043;SDS011;51680;49.806;18.774;2022-10-18T03:20:29;10.15;;;2.72;;
41043;SDS011;51680;49.806;18.774;2022-10-18T03:23:31;5.05;;;2.90;;
41043;SDS011;51680;49.806;18.774;2022-10-18T03:26:33;8.13;;;3.42;;
41043;SDS011;51680;49.806;18.774;2022-10-18T03:29:35;6.38;;;3.00;;
41043;SDS011;51680;49.806;18.774;2022-10-18T03:32:37;4.88;;;2.80;;
41043;SDS011;51680;49.806;18.774;2022-10-18T03:35:40;4.75;;;2.70;;
41043;SDS011;51680;49.806;18.774;2022-10-18T03:38:41;9.00;;;3.05;;
41043;SDS011;51680;49.806;18.774;2022-10-18T03:41:43;6.78;;;3.38;;
41043;SDS011;51680;49.806;18.774;2022-10-18T03:44:45;5.78;;;2.95;;
41043;SDS011;51680;49.806;18.774;2022-10-18T03:47:47;5.60;;;3.15;;
41043;SDS011;51680;49.806;18.774;2022-10-18T03:50:50;4.70;;;2.80;;
41043;SDS011;51680;49.806;18.774;2022-10-18T03:53:51;8.18;;;3.17;;
41043;SDS011;51680;49.806;18.774;2022-10-18T03:56:53;9.27;;;3.67;;
41043;SDS011;51680;49.806;18.774;2022-10-18T03:59:55;4.53;;;2.88;;
41043;SDS011;51680;49.806;18.774;2022-10-18T04:02:57;7.82;;;3.40;;
41043;SDS011;51680;49.806;18.774;2022-10-18T04:06:00;4.97;;;3.28;;
41043;SDS011;51680;49.806;18.774;2022-10-18T04:12:04;6.45;;;3.40;;
41043;SDS011;51680;49.806;18.774;2022-10-18T04:15:07;6.38;;;3.30;;
41043;SDS011;51680;49.806;18.774;2022-10-18T04:18:09;9.82;;;3.35;;
41043;SDS011;51680;49.806;18.774;2022-10-18T04:21:12;5.10;;;2.95;;
41043;SDS011;51680;49.806;18.774;2022-10-18T04:24:15;7.25;;;3.35;;
41043;SDS011;51680;49.806;18.774;2022-10-18T04:27:17;11.98;;;3.17;;
41043;SDS011;51680;49.806;18.774;2022-10-18T04:30:18;5.22;;;3.30;;
41043;SDS011;51680;49.806;18.774;2022-10-18T04:33:20;6.78;;;3.60;;
41043;SDS011;51680;49.806;18.774;2022-10-18T04:36:24;8.10;;;3.30;;
41043;SDS011;51680;49.806;18.774;2022-10-18T04:39:25;9.50;;;3.23;;
41043;SDS011;51680;49.806;18.774;2022-10-18T04:42:27;9.25;;;3.10;;
41043;SDS011;51680;49.806;18.774;2022-10-18T04:45:29;6.07;;;3.58;;
41043;SDS011;51680;49.806;18.774;2022-10-18T04:48:31;8.15;;;3.65;;
41043;SDS011;51680;49.806;18.774;2022-10-18T04:51:34;7.97;;;3.83;;
41043;SDS011;51680;49.806;18.774;2022-10-18T04:54:35;5.90;;;3.10;;
41043;SDS011;51680;49.806;18.774;2022-10-18T04:57:37;5.20;;;2.95;;
41043;SDS011;51680;49.806;18.774;2022-10-18T05:00:39;11.88;;;3.50;;
41043;SDS011;51680;49.806;18.774;2022-10-18T05:03:41;9.73;;;3.75;;
41043;SDS011;51680;49.806;18.774;2022-10-18T05:06:44;10.88;;;3.65;;
41043;SDS011;51680;49.806;18.774;2022-10-18T05:09:46;6.15;;;3.38;;
41043;SDS011;51680;49.806;18.774;2022-10-18T05:12:48;7.28;;;3.42;;
41043;SDS011;51680;49.806;18.774;2022-10-18T05:15:49;5.80;;;3.17;;
41043;SDS011;51680;49.806;18.774;2022-10-18T05:18:51;9.70;;;3.97;;
41043;SDS011;51680;49.806;18.774;2022-10-18T05:21:54;11.68;;;3.92;;
41043;SDS011;51680;49.806;18.774;2022-10-18T05:24:56;7.30;;;3.22;;
41043;SDS011;51680;49.806;18.774;2022-10-18T05:27:58;10.38;;;4.03;;
41043;SDS011;51680;49.806;18.774;2022-10-18T05:30:59;9.68;;;4.05;;
41043;SDS011;51680;49.806;18.774;2022-10-18T05:34:02;8.40;;;3.65;;
41043;SDS011;51680;49.806;18.774;2022-10-18T05:37:05;8.52;;;3.15;;
41043;SDS011;51680;49.806;18.774;2022-10-18T05:40:08;6.97;;;3.43;;
41043;SDS011;51680;49.806;18.774;2022-10-18T05:43:10;6.60;;;3.42;;
41043;SDS011;51680;49.806;18.774;2022-10-18T05:46:12;9.57;;;3.38;;
41043;SDS011;51680;49.806;18.774;2022-10-18T05:49:14;7.28;;;3.30;;
41043;SDS011;51680;49.806;18.774;2022-10-18T05:52:17;7.93;;;3.72;;
41043;SDS011;51680;49.806;18.774;2022-10-18T05:55:18;6.82;;;3.35;;
41043;SDS011;51680;49.806;18.774;2022-10-18T05:58:20;6.20;;;3.45;;
41043;SDS011;51680;49.806;18.774;2022-10-18T06:01:22;8.80;;;3.35;;
41043;SDS011;51680;49.806;18.774;2022-10-18T06:04:24;6.63;;;2.90;;
41043;SDS011;51680;49.806;18.774;2022-10-18T06:07:27;8.43;;;3.00;;
41043;SDS011;51680;49.806;18.774;2022-10-18T06:10:28;8.20;;;4.57;;
41043;SDS011;51680;49.806;18.774;2022-10-18T06:13:30;12.35;;;5.43;;
41043;SDS011;51680;49.806;18.774;2022-10-18T06:16:32;11.27;;;5.10;;
41043;SDS011;51680;49.806;18.774;2022-10-18T06:19:34;14.32;;;6.10;;
41043;SDS011;51680;49.806;18.774;2022-10-18T06:22:37;13.57;;;5.13;;
41043;SDS011;51680;49.806;18.774;2022-10-18T06:25:38;14.10;;;4.60;;
41043;SDS011;51680;49.806;18.774;2022-10-18T06:28:40;9.98;;;4.63;;
41043;SDS011;51680;49.806;18.774;2022-10-18T06:31:42;11.57;;;4.60;;
41043;SDS011;51680;49.806;18.774;2022-10-18T06:34:44;9.73;;;4.03;;
41043;SDS011;51680;49.806;18.774;2022-10-18T06:37:47;7.88;;;4.10;;
41043;SDS011;51680;49.806;18.774;2022-10-18T06:40:49;10.23;;;4.22;;
41043;SDS011;51680;49.806;18.774;2022-10-18T06:43:51;11.80;;;4.25;;
41043;SDS011;51680;49.806;18.774;2022-10-18T06:46:56;11.13;;;3.80;;
41043;SDS011;51680;49.806;18.774;2022-10-18T06:49:58;7.70;;;3.72;;
41043;SDS011;51680;49.806;18.774;2022-10-18T06:53:01;9.23;;;3.92;;
41043;SDS011;51680;49.806;18.774;2022-10-18T06:56:06;10.60;;;4.13;;
41043;SDS011;51680;49.806;18.774;2022-10-18T06:59:10;10.27;;;4.22;;
41043;SDS011;51680;49.806;18.774;2022-10-18T07:02:13;8.50;;;4.25;;
41043;SDS011;51680;49.806;18.774;2022-10-18T07:05:16;10.32;;;3.65;;
41043;SDS011;51680;49.806;18.774;2022-10-18T07:08:19;9.35;;;3.63;;
41043;SDS011;51680;49.806;18.774;2022-10-18T07:11:21;7.88;;;3.40;;
41043;SDS011;51680;49.806;18.774;2022-10-18T07:17:26;7.65;;;3.20;;
41043;SDS011;51680;49.806;18.774;2022-10-18T07:20:28;6.75;;;2.85;;
41043;SDS011;51680;49.806;18.774;2022-10-18T07:23:32;6.40;;;3.10;;
41043;SDS011;51680;49.806;18.774;2022-10-18T07:26:34;9.82;;;2.53;;
41043;SDS011;51680;49.806;18.774;2022-10-18T07:29:36;7.80;;;2.50;;
41043;SDS011;51680;49.806;18.774;2022-10-18T07:32:38;8.18;;;2.83;;
41043;SDS011;51680;49.806;18.774;2022-10-18T07:35:40;6.75;;;2.83;;
41043;SDS011;51680;49.806;18.774;2022-10-18T07:38:43;5.47;;;2.72;;
41043;SDS011;51680;49.806;18.774;2022-10-18T07:41:45;5.90;;;3.60;;
41043;SDS011;51680;49.806;18.774;2022-10-18T07:44:47;8.10;;;3.65;;
41043;SDS011;51680;49.806;18.774;2022-10-18T07:47:52;11.57;;;5.28;;
41043;SDS011;51680;49.806;18.774;2022-10-18T07:50:56;10.68;;;4.30;;
41043;SDS011;51680;49.806;18.774;2022-10-18T07:54:01;13.15;;;5.05;;
41043;SDS011;51680;49.806;18.774;2022-10-18T07:57:03;8.63;;;4.13;;
41043;SDS011;51680;49.806;18.774;2022-10-18T08:00:05;8.02;;;3.90;;
41043;SDS011;51680;49.806;18.774;2022-10-18T08:03:11;12.68;;;4.22;;
41043;SDS011;51680;49.806;18.774;2022-10-18T08:06:14;7.00;;;4.60;;
41043;SDS011;51680;49.806;18.774;2022-10-18T08:09:19;11.00;;;4.65;;
41043;SDS011;51680;49.806;18.774;2022-10-18T08:12:21;14.10;;;5.95;;
41043;SDS011;51680;49.806;18.774;2022-10-18T08:15:23;13.20;;;4.68;;
41043;SDS011;51680;49.806;18.774;2022-10-18T08:18:25;6.35;;;4.20;;
41043;SDS011;51680;49.806;18.774;2022-10-18T08:21:26;11.95;;;3.90;;
41043;SDS011;51680;49.806;18.774;2022-10-18T08:24:29;9.07;;;3.80;;
41043;SDS011;51680;49.806;18.774;2022-10-18T08:27:31;8.77;;;4.32;;
41043;SDS011;51680;49.806;18.774;2022-10-18T08:30:33;12.48;;;4.63;;
41043;SDS011;51680;49.806;18.774;2022-10-18T08:33:36;9.27;;;4.13;;
41043;SDS011;51680;49.806;18.774;2022-10-18T08:36:38;8.77;;;4.68;;
41043;SDS011;51680;49.806;18.774;2022-10-18T08:39:41;11.23;;;4.80;;
41043;SDS011;51680;49.806;18.774;2022-10-18T08:42:47;18.05;;;5.60;;
41043;SDS011;51680;49.806;18.774;2022-10-18T08:45:57;13.55;;;5.53;;
41043;SDS011;51680;49.806;18.774;2022-10-18T08:49:00;10.93;;;5.50;;
41043;SDS011;51680;49.806;18.774;2022-10-18T08:52:02;7.68;;;4.82;;
41043;SDS011;51680;49.806;18.774;2022-10-18T08:55:14;9.82;;;5.05;;
41043;SDS011;51680;49.806;18.774;2022-10-18T08:58:22;8.65;;;4.50;;
41043;SDS011;51680;49.806;18.774;2022-10-18T09:01:28;10.57;;;4.80;;
41043;SDS011;51680;49.806;18.774;2022-10-18T09:04:43;13.07;;;4.80;;
41043;SDS011;51680;49.806;18.774;2022-10-18T09:07:58;12.43;;;5.40;;
41043;SDS011;51680;49.806;18.774;2022-10-18T09:11:19;10.02;;;5.03;;
41043;SDS011;51680;49.806;18.774;2022-10-18T09:14:38;15.45;;;5.63;;
41043;SDS011;51680;49.806;18.774;2022-10-18T09:17:58;14.93;;;6.03;;
41043;SDS011;51680;49.806;18.774;2022-10-18T09:21:16;12.40;;;5.93;;
41043;SDS011;51680;49.806;18.774;2022-10-18T09:24:24;13.55;;;5.28;;
41043;SDS011;51680;49.806;18.774;2022-10-18T09:27:32;9.88;;;5.30;;
41043;SDS011;51680;49.806;18.774;2022-10-18T09:30:43;18.73;;;5.03;;
41043;SDS011;51680;49.806;18.774;2022-10-18T09:33:52;15.07;;;5.97;;
41043;SDS011;51680;49.806;18.774;2022-10-18T09:36:56;17.67;;;8.35;;
41043;SDS011;51680;49.806;18.774;2022-10-18T09:40:02;14.02;;;6.90;;
41043;SDS011;51680;49.806;18.774;2022-10-18T09:43:09;12.75;;;6.68;;
41043;SDS011;51680;49.806;18.774;2022-10-18T09:46:17;15.73;;;8.13;;
41043;SDS011;51680;49.806;18.774;2022-10-18T09:49:22;13.88;;;7.10;;
41043;SDS011;51680;49.806;18.774;2022-10-18T09:52:30;15.95;;;7.07;;
41043;SDS011;51680;49.806;18.774;2022-10-18T09:55:38;17.73;;;7.10;;
41043;SDS011;51680;49.806;18.774;2022-10-18T09:58:47;17.27;;;7.95;;
41043;SDS011;51680;49.806;18.774;2022-10-18T10:01:50;17.77;;;7.55;;
41043;SDS011;51680;49.806;18.774;2022-10-18T10:04:52;15.05;;;7.18;;
41043;SDS011;51680;49.806;18.774;2022-10-18T10:07:56;16.75;;;8.85;;
41043;SDS011;51680;49.806;18.774;2022-10-18T10:11:01;15.68;;;8.90;;
41043;SDS011;51680;49.806;18.774;2022-10-18T10:14:08;18.20;;;7.75;;
41043;SDS011;51680;49.806;18.774;2022-10-18T10:17:20;18.42;;;8.57;;
41043;SDS011;51680;49.806;18.774;2022-10-18T10:20:24;21.90;;;7.75;;
41043;SDS011;51680;49.806;18.774;2022-10-18T10:23:35;20.30;;;6.80;;
41043;SDS011;51680;49.806;18.774;2022-10-18T10:26:39;18.02;;;8.02;;
41043;SDS011;51680;49.806;18.774;2022-10-18T10:29:53;13.15;;;6.95;;
41043;SDS011;51680;49.806;18.774;2022-10-18T10:32:57;13.30;;;6.38;;
41043;SDS011;51680;49.806;18.774;2022-10-18T10:35:59;15.90;;;6.28;;
41043;SDS011;51680;49.806;18.774;2022-10-18T10:39:03;13.32;;;6.00;;
41043;SDS011;51680;49.806;18.774;2022-10-18T10:42:10;14.85;;;6.45;;
41043;SDS011;51680;49.806;18.774;2022-10-18T10:45:16;11.27;;;6.18;;
41043;SDS011;51680;49.806;18.774;2022-10-18T10:48:18;13.73;;;6.43;;
41043;SDS011;51680;49.806;18.774;2022-10-18T10:51:26;14.70;;;6.57;;
41043;SDS011;51680;49.806;18.774;2022-10-18T10:54:30;14.75;;;6.10;;
41043;SDS011;51680;49.806;18.774;2022-10-18T10:57:38;10.25;;;5.63;;
41043;SDS011;51680;49.806;18.774;2022-10-18T11:00:42;13.15;;;5.40;;
41043;SDS011;51680;49.806;18.774;2022-10-18T11:06:48;11.98;;;5.75;;
41043;SDS011;51680;49.806;18.774;2022-10-18T11:09:55;13.30;;;5.38;;
41043;SDS011;51680;49.806;18.774;2022-10-18T11:13:02;11.75;;;5.72;;
41043;SDS011;51680;49.806;18.774;2022-10-18T11:16:20;13.32;;;5.20;;
41043;SDS011;51680;49.806;18.774;2022-10-18T11:19:31;9.45;;;4.32;;
41043;SDS011;51680;49.806;18.774;2022-10-18T11:22:40;11.60;;;4.53;;
41043;SDS011;51680;49.806;18.774;2022-10-18T11:25:49;12.32;;;4.95;;
41043;SDS011;51680;49.806;18.774;2022-10-18T11:32:51;8.13;;;4.60;;
41043;SDS011;51680;49.806;18.774;2022-10-18T11:36:03;8.48;;;4.05;;
41043;SDS011;51680;49.806;18.774;2022-10-18T11:39:12;8.38;;;3.60;;
41043;SDS011;51680;49.806;18.774;2022-10-18T11:42:20;7.47;;;3.47;;
41043;SDS011;51680;49.806;18.774;2022-10-18T11:45:36;4.93;;;3.28;;
41043;SDS011;51680;49.806;18.774;2022-10-18T11:48:48;12.30;;;4.05;;
41043;SDS011;51680;49.806;18.774;2022-10-18T11:52:19;9.93;;;3.67;;
41043;SDS011;51680;49.806;18.774;2022-10-18T11:55:36;12.00;;;3.63;;
41043;SDS011;51680;49.806;18.774;2022-10-18T11:58:48;8.10;;;3.80;;
41043;SDS011;51680;49.806;18.774;2022-10-18T12:02:09;8.25;;;3.17;;
41043;SDS011;51680;49.806;18.774;2022-10-18T12:05:25;7.75;;;4.05;;
41043;SDS011;51680;49.806;18.774;2022-10-18T12:08:30;13.23;;;3.80;;
41043;SDS011;51680;49.806;18.774;2022-10-18T12:11:37;6.40;;;3.78;;
41043;SDS011;51680;49.806;18.774;2022-10-18T12:14:45;9.50;;;4.10;;
41043;SDS011;51680;49.806;18.774;2022-10-18T12:17:50;11.88;;;3.50;;
41043;SDS011;51680;49.806;18.774;2022-10-18T12:20:55;8.73;;;3.88;;
41043;SDS011;51680;49.806;18.774;2022-10-18T12:24:01;9.20;;;4.35;;
41043;SDS011;51680;49.806;18.774;2022-10-18T12:27:08;15.13;;;5.07;;
41043;SDS011;51680;49.806;18.774;2022-10-18T12:30:16;10.82;;;5.10;;
41043;SDS011;51680;49.806;18.774;2022-10-18T12:33:23;11.30;;;4.65;;
41043;SDS011;51680;49.806;18.774;2022-10-18T12:36:48;9.25;;;4.10;;
41043;SDS011;51680;49.806;18.774;2022-10-18T12:40:02;7.75;;;3.97;;
41043;SDS011;51680;49.806;18.774;2022-10-18T12:43:07;11.15;;;4.50;;
41043;SDS011;51680;49.806;18.774;2022-10-18T12:46:11;8.60;;;3.60;;
41043;SDS011;51680;49.806;18.774;2022-10-18T12:49:24;6.22;;;3.33;;
41043;SDS011;51680;49.806;18.774;2022-10-18T12:52:30;12.52;;;4.10;;
41043;SDS011;51680;49.806;18.774;2022-10-18T12:55:36;6.38;;;3.63;;
41043;SDS011;51680;49.806;18.774;2022-10-18T12:58:39;7.78;;;3.42;;
41043;SDS011;51680;49.806;18.774;2022-10-18T13:09:16;9.68;;;3.22;;
41043;SDS011;51680;49.806;18.774;2022-10-18T13:15:57;5.25;;;3.25;;
41043;SDS011;51680;49.806;18.774;2022-10-18T13:19:10;6.38;;;3.17;;
41043;SDS011;51680;49.806;18.774;2022-10-18T13:22:25;10.85;;;3.92;;
41043;SDS011;51680;49.806;18.774;2022-10-18T13:25:38;10.15;;;4.13;;
41043;SDS011;51680;49.806;18.774;2022-10-18T13:28:54;7.90;;;4.25;;
41043;SDS011;51680;49.806;18.774;2022-10-18T13:32:03;11.13;;;3.95;;
41043;SDS011;51680;49.806;18.774;2022-10-18T13:38:47;6.05;;;3.50;;
41043;SDS011;51680;49.806;18.774;2022-10-18T13:42:27;5.70;;;3.53;;
41043;SDS011;51680;49.806;18.774;2022-10-18T13:45:41;11.50;;;3.70;;
41043;SDS011;51680;49.806;18.774;2022-10-18T13:48:56;5.03;;;3.50;;
41043;SDS011;51680;49.806;18.774;2022-10-18T13:52:00;7.18;;;3.72;;
41043;SDS011;51680;49.806;18.774;2022-10-18T13:55:24;7.30;;;3.70;;
41043;SDS011;51680;49.806;18.774;2022-10-18T13:58:42;7.47;;;3.40;;
41043;SDS011;51680;49.806;18.774;2022-10-18T14:01:55;7.18;;;3.72;;
41043;SDS011;51680;49.806;18.774;2022-10-18T14:05:38;8.10;;;3.80;;
41043;SDS011;51680;49.806;18.774;2022-10-18T14:09:11;6.22;;;3.75;;
41043;SDS011;51680;49.806;18.774;2022-10-18T14:12:20;8.60;;;5.10;;
41043;SDS011;51680;49.806;18.774;2022-10-18T14:15:30;12.35;;;5.57;;
41043;SDS011;51680;49.806;18.774;2022-10-18T14:18:36;10.07;;;5.38;;
41043;SDS011;51680;49.806;18.774;2022-10-18T14:21:46;11.43;;;4.82;;
41043;SDS011;51680;49.806;18.774;2022-10-18T14:24:54;8.18;;;4.32;;
41043;SDS011;51680;49.806;18.774;2022-10-18T14:28:08;9.00;;;4.55;;
41043;SDS011;51680;49.806;18.774;2022-10-18T14:31:14;8.63;;;4.45;;
41043;SDS011;51680;49.806;18.774;2022-10-18T14:34:18;10.27;;;4.72;;
41043;SDS011;51680;49.806;18.774;2022-10-18T14:37:24;14.80;;;4.93;;
41043;SDS011;51680;49.806;18.774;2022-10-18T14:40:32;8.73;;;4.47;;
41043;SDS011;51680;49.806;18.774;2022-10-18T14:43:35;10.35;;;4.97;;
41043;SDS011;51680;49.806;18.774;2022-10-18T14:46:41;11.52;;;4.32;;
41043;SDS011;51680;49.806;18.774;2022-10-18T14:49:44;9.77;;;4.20;;
41043;SDS011;51680;49.806;18.774;2022-10-18T14:52:47;7.30;;;4.32;;
41043;SDS011;51680;49.806;18.774;2022-10-18T14:55:52;12.60;;;4.50;;
41043;SDS011;51680;49.806;18.774;2022-10-18T14:58:56;10.80;;;4.25;;
41043;SDS011;51680;49.806;18.774;2022-10-18T15:02:08;9.40;;;4.28;;
41043;SDS011;51680;49.806;18.774;2022-10-18T15:05:18;12.35;;;4.20;;
41043;SDS011;51680;49.806;18.774;2022-10-18T15:08:22;9.38;;;4.88;;
41043;SDS011;51680;49.806;18.774;2022-10-18T15:11:27;13.00;;;4.78;;
41043;SDS011;51680;49.806;18.774;2022-10-18T15:14:29;10.68;;;4.78;;
41043;SDS011;51680;49.806;18.774;2022-10-18T15:17:32;8.35;;;4.68;;
41043;SDS011;51680;49.806;18.774;2022-10-18T15:20:35;9.15;;;4.82;;
41043;SDS011;51680;49.806;18.774;2022-10-18T15:23:41;10.07;;;5.40;;
41043;SDS011;51680;49.806;18.774;2022-10-18T15:26:45;15.80;;;8.18;;
41043;SDS011;51680;49.806;18.774;2022-10-18T15:29:49;15.98;;;8.10;;
41043;SDS011;51680;49.806;18.774;2022-10-18T15:32:53;13.02;;;7.47;;
41043;SDS011;51680;49.806;18.774;2022-10-18T15:36:06;14.15;;;6.65;;
41043;SDS011;51680;49.806;18.774;2022-10-18T15:39:13;11.27;;;5.82;;
41043;SDS011;51680;49.806;18.774;2022-10-18T15:42:36;10.27;;;5.03;;
41043;SDS011;51680;49.806;18.774;2022-10-18T15:45:39;8.45;;;5.10;;
41043;SDS011;51680;49.806;18.774;2022-10-18T15:48:51;13.02;;;5.45;;
41043;SDS011;51680;49.806;18.774;2022-10-18T15:51:54;12.27;;;5.15;;
41043;SDS011;51680;49.806;18.774;2022-10-18T15:55:44;12.05;;;6.05;;
41043;SDS011;51680;49.806;18.774;2022-10-18T15:58:48;9.40;;;5.45;;
41043;SDS011;51680;49.806;18.774;2022-10-18T16:01:50;18.10;;;6.05;;
41043;SDS011;51680;49.806;18.774;2022-10-18T16:04:53;10.00;;;5.60;;
41043;SDS011;51680;49.806;18.774;2022-10-18T16:07:55;12.70;;;6.63;;
41043;SDS011;51680;49.806;18.774;2022-10-18T16:10:57;15.40;;;6.53;;
41043;SDS011;51680;49.806;18.774;2022-10-18T16:13:59;10.45;;;5.47;;
41043;SDS011;51680;49.806;18.774;2022-10-18T16:17:02;10.40;;;5.85;;
41043;SDS011;51680;49.806;18.774;2022-10-18T16:20:08;13.75;;;6.00;;
41043;SDS011;51680;49.806;18.774;2022-10-18T16:23:20;14.23;;;5.90;;
41043;SDS011;51680;49.806;18.774;2022-10-18T16:26:23;18.80;;;7.78;;
41043;SDS011;51680;49.806;18.774;2022-10-18T16:29:26;16.30;;;8.23;;
41043;SDS011;51680;49.806;18.774;2022-10-18T16:32:31;22.05;;;10.63;;
41043;SDS011;51680;49.806;18.774;2022-10-18T16:35:34;18.42;;;9.52;;
41043;SDS011;51680;49.806;18.774;2022-10-18T16:38:36;16.90;;;8.50;;
41043;SDS011;51680;49.806;18.774;2022-10-18T16:41:38;19.55;;;8.88;;
41043;SDS011;51680;49.806;18.774;2022-10-18T16:44:39;14.20;;;8.10;;
41043;SDS011;51680;49.806;18.774;2022-10-18T16:47:41;13.95;;;8.10;;
41043;SDS011;51680;49.806;18.774;2022-10-18T16:50:44;14.38;;;7.00;;
41043;SDS011;51680;49.806;18.774;2022-10-18T16:56:49;11.95;;;6.78;;
41043;SDS011;51680;49.806;18.774;2022-10-18T16:59:51;16.50;;;6.40;;
41043;SDS011;51680;49.806;18.774;2022-10-18T17:02:52;12.38;;;6.18;;
41043;SDS011;51680;49.806;18.774;2022-10-18T17:05:55;11.90;;;6.05;;
41043;SDS011;51680;49.806;18.774;2022-10-18T17:08:57;9.57;;;5.43;;
41043;SDS011;51680;49.806;18.774;2022-10-18T17:11:59;9.80;;;5.88;;
41043;SDS011;51680;49.806;18.774;2022-10-18T17:15:01;10.45;;;5.70;;
41043;SDS011;51680;49.806;18.774;2022-10-18T17:18:03;12.60;;;5.88;;
41043;SDS011;51680;49.806;18.774;2022-10-18T17:21:06;13.52;;;5.90;;
41043;SDS011;51680;49.806;18.774;2022-10-18T17:24:08;12.00;;;5.73;;
41043;SDS011;51680;49.806;18.774;2022-10-18T17:27:10;11.88;;;6.93;;
41043;SDS011;51680;49.806;18.774;2022-10-18T17:30:12;13.68;;;7.40;;
41043;SDS011;51680;49.806;18.774;2022-10-18T17:33:17;14.13;;;8.55;;
41043;SDS011;51680;49.806;18.774;2022-10-18T17:36:20;25.10;;;10.30;;
41043;SDS011;51680;49.806;18.774;2022-10-18T17:39:22;20.02;;;9.15;;
41043;SDS011;51680;49.806;18.774;2022-10-18T17:42:23;20.48;;;10.10;;
41043;SDS011;51680;49.806;18.774;2022-10-18T17:45:25;24.88;;;10.73;;
41043;SDS011;51680;49.806;18.774;2022-10-18T17:48:27;24.27;;;11.18;;
41043;SDS011;51680;49.806;18.774;2022-10-18T17:51:30;24.42;;;11.80;;
41043;SDS011;51680;49.806;18.774;2022-10-18T17:54:32;24.85;;;11.98;;
41043;SDS011;51680;49.806;18.774;2022-10-18T17:57:34;24.75;;;11.75;;
41043;SDS011;51680;49.806;18.774;2022-10-18T18:00:36;25.75;;;12.45;;
41043;SDS011;51680;49.806;18.774;2022-10-18T18:03:37;27.33;;;12.82;;
41043;SDS011;51680;49.806;18.774;2022-10-18T18:06:41;30.08;;;12.93;;
41043;SDS011;51680;49.806;18.774;2022-10-18T18:09:44;27.08;;;13.20;;
41043;SDS011;51680;49.806;18.774;2022-10-18T18:12:46;26.00;;;12.88;;
41043;SDS011;51680;49.806;18.774;2022-10-18T18:15:48;26.27;;;12.43;;
41043;SDS011;51680;49.806;18.774;2022-10-18T18:18:50;26.10;;;12.18;;
41043;SDS011;51680;49.806;18.774;2022-10-18T18:21:54;23.50;;;11.40;;
41043;SDS011;51680;49.806;18.774;2022-10-18T18:24:57;26.58;;;11.65;;
41043;SDS011;51680;49.806;18.774;2022-10-18T18:27:59;22.23;;;11.00;;
41043;SDS011;51680;49.806;18.774;2022-10-18T18:31:03;30.58;;;10.90;;
41043;SDS011;51680;49.806;18.774;2022-10-18T18:34:07;19.85;;;9.98;;
41043;SDS011;51680;49.806;18.774;2022-10-18T18:37:11;23.42;;;11.52;;
41043;SDS011;51680;49.806;18.774;2022-10-18T18:40:12;22.40;;;11.00;;
41043;SDS011;51680;49.806;18.774;2022-10-18T18:43:14;22.15;;;10.77;;
41043;SDS011;51680;49.806;18.774;2022-10-18T18:46:16;21.10;;;9.88;;
41043;SDS011;51680;49.806;18.774;2022-10-18T18:49:18;21.92;;;10.00;;
41043;SDS011;51680;49.806;18.774;2022-10-18T18:52:21;21.80;;;10.77;;
41043;SDS011;51680;49.806;18.774;2022-10-18T18:55:23;21.10;;;10.65;;
41043;SDS011;51680;49.806;18.774;2022-10-18T18:58:25;22.90;;;11.82;;